Time;durP1;ratioP1;P1;durP2;ratioP2;P2;SDS_P1;SDS_P2;PMS_P1;PMS_P2;Temp;Humidity;BMP_temperature;BMP_pressure;BME280_temperature;BME280_humidity;BME280_pressure;Samples;Min_cycle;Max_cycle;Signal;HPM_P1;HPM_P2
2023/07/28 00:02:09;;;;;;;3.17;1.85;;;17.60;99.90;;;;;;4980725;28;20126;-52
2023/07/28 00:04:36;;;;;;;5.65;2.22;;;17.70;99.90;;;;;;4984416;28;20221;-54
2023/07/28 00:07:02;;;;;;;3.47;2.10;;;17.60;99.90;;;;;;4984065;28;20018;-54
2023/07/28 00:09:28;;;;;;;3.47;2.15;;;17.60;99.90;;;;;;4983652;28;20038;-53
2023/07/28 00:11:55;;;;;;;4.65;2.35;;;17.70;99.90;;;;;;4981387;28;20087;-53
2023/07/28 00:14:20;;;;;;;3.88;2.30;;;17.60;99.90;;;;;;4978990;28;20030;-53
2023/07/28 00:16:46;;;;;;;4.50;2.28;;;17.60;99.90;;;;;;4980930;28;20027;-53
2023/07/28 00:19:12;;;;;;;3.88;2.53;;;17.60;99.90;;;;;;4983239;28;20371;-55
2023/07/28 00:21:38;;;;;;;3.53;2.00;;;17.60;99.90;;;;;;4982523;28;20045;-56
2023/07/28 00:24:03;;;;;;;5.05;2.70;;;17.60;99.90;;;;;;4971680;28;20027;-51
2023/07/28 00:26:29;;;;;;;5.72;2.58;;;17.60;99.90;;;;;;4971970;28;20408;-55
2023/07/28 00:28:54;;;;;;;4.32;2.13;;;17.50;99.90;;;;;;4979551;28;20495;-53
2023/07/28 00:31:20;;;;;;;6.35;2.63;;;17.50;99.90;;;;;;4977515;28;20078;-51
2023/07/28 00:33:46;;;;;;;5.93;2.38;;;17.50;99.90;;;;;;4979344;28;20321;-56
2023/07/28 00:36:11;;;;;;;3.95;2.67;;;17.50;99.90;;;;;;4984176;28;20085;-54
2023/07/28 00:38:37;;;;;;;4.38;2.53;;;17.40;99.90;;;;;;4979640;28;20219;-56
2023/07/28 00:41:03;;;;;;;3.75;2.55;;;17.40;99.90;;;;;;4978364;28;20045;-51
2023/07/28 00:43:29;;;;;;;3.60;2.33;;;17.40;99.90;;;;;;4983290;28;20038;-52
2023/07/28 00:45:54;;;;;;;3.45;2.15;;;17.40;99.90;;;;;;4978479;28;20399;-54
2023/07/28 00:48:20;;;;;;;7.03;2.30;;;17.50;99.90;;;;;;4981738;28;20026;-53
2023/07/28 00:50:47;;;;;;;4.10;2.42;;;17.40;99.90;;;;;;4982618;28;20023;-49
2023/07/28 00:53:14;;;;;;;3.58;2.22;;;17.40;99.90;;;;;;4975585;28;20385;-56
2023/07/28 00:55:40;;;;;;;3.00;1.90;;;17.50;99.90;;;;;;4978972;28;20035;-50
2023/07/28 00:58:06;;;;;;;4.68;2.50;;;17.40;99.90;;;;;;4976771;28;20031;-55
2023/07/28 01:00:31;;;;;;;3.88;1.92;;;17.50;99.90;;;;;;4979255;28;20035;-52
2023/07/28 01:02:57;;;;;;;3.75;1.95;;;17.50;99.90;;;;;;4976859;28;20030;-55
2023/07/28 01:05:37;;;;;;;4.15;2.10;;;17.50;99.90;;;;;;4976410;28;20517;-55
2023/07/28 01:08:10;;;;;;;3.80;2.10;;;17.50;99.90;;;;;;4976411;28;20058;-56
2023/07/28 01:10:38;;;;;;;3.75;1.58;;;17.50;99.90;;;;;;4978407;28;20479;-54
2023/07/28 01:13:04;;;;;;;2.97;1.92;;;17.50;99.90;;;;;;4980928;28;20026;-55
2023/07/28 01:15:29;;;;;;;3.65;1.98;;;17.50;99.90;;;;;;4981399;28;20033;-56
2023/07/28 01:17:55;;;;;;;3.45;1.80;;;17.50;99.90;;;;;;4985447;28;20031;-53
2023/07/28 01:20:27;;;;;;;3.03;1.80;;;17.50;99.90;;;;;;4977592;28;20109;-55
2023/07/28 01:23:20;;;;;;;5.47;1.75;;;17.50;99.90;;;;;;4978337;28;20165;-54
2023/07/28 01:25:57;;;;;;;4.35;2.22;;;17.50;99.90;;;;;;4984761;28;20030;-54
2023/07/28 01:28:23;;;;;;;4.13;2.53;;;17.60;99.90;;;;;;4977577;28;20038;-53
2023/07/28 01:30:49;;;;;;;4.25;2.45;;;17.50;99.90;;;;;;4979162;28;20376;-55
2023/07/28 01:33:15;;;;;;;6.13;2.42;;;17.60;99.90;;;;;;4978528;28;20022;-53
2023/07/28 01:35:40;;;;;;;4.30;2.80;;;17.50;99.90;;;;;;4977018;28;20125;-52
2023/07/28 01:38:06;;;;;;;7.40;2.60;;;17.50;99.90;;;;;;4977400;28;20467;-54
2023/07/28 01:40:32;;;;;;;5.45;2.85;;;17.60;99.90;;;;;;4977205;28;20034;-55
2023/07/28 01:42:58;;;;;;;6.15;2.90;;;17.60;99.90;;;;;;4979782;28;20037;-56
2023/07/28 01:45:23;;;;;;;6.85;2.40;;;17.50;99.90;;;;;;4981719;28;20081;-54
2023/07/28 01:47:49;;;;;;;4.28;2.45;;;17.50;99.90;;;;;;4979633;28;20022;-50
2023/07/28 01:50:15;;;;;;;4.53;2.45;;;17.50;99.90;;;;;;4983812;28;20106;-54
2023/07/28 01:52:40;;;;;;;4.68;2.60;;;17.50;99.90;;;;;;4980038;28;20479;-50
2023/07/28 01:55:06;;;;;;;3.85;2.15;;;17.50;99.90;;;;;;4983662;28;20105;-53
2023/07/28 01:57:33;;;;;;;4.88;2.20;;;17.50;99.90;;;;;;4978018;28;20030;-55
2023/07/28 01:59:59;;;;;;;3.75;2.20;;;17.50;99.90;;;;;;4976643;28;20034;-52
2023/07/28 02:02:25;;;;;;;4.25;2.30;;;17.50;99.90;;;;;;4978018;28;20038;-54
2023/07/28 02:04:51;;;;;;;4.18;2.03;;;17.50;99.90;;;;;;4978179;28;20026;-55
2023/07/28 02:07:16;;;;;;;4.45;2.00;;;17.50;99.90;;;;;;4980250;28;20022;-55
2023/07/28 02:09:42;;;;;;;3.35;1.80;;;17.50;99.90;;;;;;4979963;28;20031;-52
2023/07/28 02:12:08;;;;;;;4.45;1.85;;;17.50;99.90;;;;;;4963700;28;20031;-53
2023/07/28 02:14:34;;;;;;;3.10;1.70;;;17.50;99.90;;;;;;4979354;28;20378;-51
2023/07/28 02:16:59;;;;;;;2.90;1.70;;;17.50;99.90;;;;;;4976903;28;20030;-55
2023/07/28 02:19:25;;;;;;;3.92;1.75;;;17.50;99.90;;;;;;4978170;28;20023;-53
2023/07/28 02:21:51;;;;;;;2.63;1.65;;;17.50;99.90;;;;;;4978247;28;20034;-55
2023/07/28 02:24:16;;;;;;;3.33;1.90;;;17.50;99.90;;;;;;4984103;28;20034;-50
2023/07/28 02:26:42;;;;;;;3.63;1.65;;;17.40;99.90;;;;;;4977218;28;20515;-54
2023/07/28 02:29:07;;;;;;;4.13;2.13;;;17.50;99.90;;;;;;4982402;28;20034;-53
2023/07/28 02:31:33;;;;;;;3.50;1.70;;;17.50;99.90;;;;;;4972747;28;20049;-52
2023/07/28 02:33:59;;;;;;;4.20;2.10;;;17.50;99.90;;;;;;4978579;28;20038;-54
2023/07/28 02:36:24;;;;;;;3.28;1.67;;;17.50;99.90;;;;;;4981589;28;20027;-54
2023/07/28 02:38:50;;;;;;;3.25;1.35;;;17.50;99.90;;;;;;4981047;28;20033;-55
2023/07/28 02:41:16;;;;;;;2.63;1.50;;;17.50;99.90;;;;;;4988233;28;20517;-56
2023/07/28 02:43:41;;;;;;;3.00;1.65;;;17.50;99.90;;;;;;4971476;28;20440;-54
2023/07/28 02:46:07;;;;;;;2.95;1.70;;;17.50;99.90;;;;;;4973990;28;20037;-53
2023/07/28 02:48:32;;;;;;;3.47;1.83;;;17.50;99.90;;;;;;4981438;28;20027;-56
2023/07/28 02:50:58;;;;;;;3.42;1.80;;;17.50;99.90;;;;;;4985571;28;20026;-54
2023/07/28 02:53:24;;;;;;;3.25;1.80;;;17.50;99.90;;;;;;4974657;28;20049;-55
2023/07/28 02:55:49;;;;;;;2.60;1.35;;;17.50;99.90;;;;;;4980063;28;20038;-53
2023/07/28 02:58:16;;;;;;;2.22;1.20;;;17.50;99.90;;;;;;4987928;28;20029;-55
2023/07/28 03:00:43;;;;;;;3.20;1.77;;;17.50;99.90;;;;;;4979503;28;20030;-54
2023/07/28 03:03:10;;;;;;;3.10;1.60;;;17.50;99.90;;;;;;4979688;28;20150;-53
2023/07/28 03:05:37;;;;;;;2.33;1.45;;;17.50;99.90;;;;;;4972183;28;20436;-52
2023/07/28 03:08:13;;;;;;;3.30;1.60;;;17.60;99.90;;;;;;4976503;28;20054;-55
2023/07/28 03:10:39;;;;;;;2.78;1.52;;;17.60;99.90;;;;;;4968367;28;20058;-49
2023/07/28 03:13:05;;;;;;;3.08;1.77;;;17.60;99.90;;;;;;4975721;28;20027;-52
2023/07/28 03:15:30;;;;;;;3.65;1.70;;;17.60;99.90;;;;;;4977365;28;20360;-56
2023/07/28 03:17:56;;;;;;;3.45;1.67;;;17.60;99.90;;;;;;4975958;28;20092;-55
2023/07/28 03:20:22;;;;;;;3.22;1.50;;;17.60;99.90;;;;;;4980660;28;20035;-50
2023/07/28 03:22:48;;;;;;;3.72;1.48;;;17.50;99.90;;;;;;4978738;28;20566;-56
2023/07/28 03:25:13;;;;;;;3.05;1.42;;;17.50;99.90;;;;;;4975609;28;20039;-56
2023/07/28 03:27:39;;;;;;;3.05;1.67;;;17.50;99.90;;;;;;4978455;28;20181;-51
2023/07/28 03:30:06;;;;;;;3.78;1.65;;;17.40;99.90;;;;;;4980902;28;20023;-54
2023/07/28 03:32:32;;;;;;;3.30;1.80;;;17.50;99.90;;;;;;4978448;28;20033;-53
2023/07/28 03:34:58;;;;;;;3.30;1.60;;;17.50;99.90;;;;;;4981045;28;20401;-54
2023/07/28 03:37:24;;;;;;;3.75;2.08;;;17.40;99.90;;;;;;4977792;28;20339;-54
2023/07/28 03:39:50;;;;;;;2.40;1.67;;;17.50;99.90;;;;;;4982356;28;20034;-56
2023/07/28 03:42:17;;;;;;;2.88;1.80;;;17.40;99.90;;;;;;4979915;28;20457;-56
2023/07/28 03:44:43;;;;;;;5.60;2.03;;;17.40;99.90;;;;;;4988835;28;20101;-49
2023/07/28 03:47:09;;;;;;;4.53;2.15;;;17.40;99.90;;;;;;4976335;28;20030;-54
2023/07/28 03:49:34;;;;;;;3.60;1.95;;;17.40;99.90;;;;;;4979312;28;20093;-54
2023/07/28 03:52:00;;;;;;;3.58;1.70;;;17.40;99.90;;;;;;4979403;28;20026;-55
2023/07/28 03:54:25;;;;;;;3.40;2.00;;;17.40;99.90;;;;;;4978846;28;20357;-54
2023/07/28 03:56:51;;;;;;;5.15;2.13;;;17.40;99.90;;;;;;4978468;28;20084;-53
2023/07/28 03:59:19;;;;;;;5.40;2.30;;;17.40;99.90;;;;;;4972536;28;20138;-52
2023/07/28 04:01:45;;;;;;;3.38;1.92;;;17.40;99.90;;;;;;4974139;28;20424;-53
2023/07/28 04:04:10;;;;;;;3.47;2.00;;;17.40;99.90;;;;;;4978970;28;20030;-55
2023/07/28 04:06:42;;;;;;;3.80;2.13;;;17.50;99.90;;;;;;4961087;28;20448;-54
2023/07/28 04:09:08;;;;;;;3.97;2.55;;;17.40;99.90;;;;;;4972524;28;20038;-56
2023/07/28 04:11:34;;;;;;;4.20;2.30;;;17.40;99.90;;;;;;4982279;28;20037;-53
2023/07/28 04:14:00;;;;;;;3.17;1.70;;;17.40;99.90;;;;;;4979496;28;20069;-54
2023/07/28 04:16:25;;;;;;;3.58;2.20;;;17.40;99.90;;;;;;4970817;28;20058;-53
2023/07/28 04:18:51;;;;;;;3.60;1.60;;;17.40;99.90;;;;;;4985559;28;20121;-54
2023/07/28 04:21:16;;;;;;;5.63;2.10;;;17.40;99.90;;;;;;4982054;28;20439;-50
2023/07/28 04:23:43;;;;;;;3.40;2.08;;;17.40;99.90;;;;;;4980529;28;20034;-54
2023/07/28 04:26:09;;;;;;;3.60;1.98;;;17.40;99.90;;;;;;4973916;28;20499;-54
2023/07/28 04:28:35;;;;;;;4.88;2.45;;;17.40;99.90;;;;;;4982204;28;20026;-55
2023/07/28 04:31:02;;;;;;;5.25;1.92;;;17.40;99.90;;;;;;4975978;28;20042;-55
2023/07/28 04:33:51;;;;;;;;;;;17.40;99.90;;;;;;4986423;28;20036;-55
2023/07/28 04:36:17;;;;;;;4.07;1.90;;;17.40;99.90;;;;;;4983698;28;19913;-54
2023/07/28 04:38:42;;;;;;;2.92;1.85;;;17.50;99.90;;;;;;4982617;28;20084;-53
2023/07/28 04:41:08;;;;;;;4.45;2.03;;;17.40;99.90;;;;;;4978923;28;20100;-49
2023/07/28 04:43:47;;;;;;;3.67;2.00;;;17.50;99.90;;;;;;4978295;28;20038;-53
2023/07/28 04:46:12;;;;;;;4.32;2.08;;;17.50;99.90;;;;;;4977960;28;20031;-55
2023/07/28 04:48:39;;;;;;;3.40;1.65;;;17.50;99.90;;;;;;4978348;28;20027;-54
2023/07/28 04:51:24;;;;;;;2.83;1.85;;;17.60;99.90;;;;;;4977841;28;20097;-52
2023/07/28 04:54:12;;;;;;;3.08;1.83;;;17.60;99.90;;;;;;4980797;28;20037;-55
2023/07/28 04:56:37;;;;;;;2.88;1.58;;;17.60;99.90;;;;;;4975368;28;20487;-54
2023/07/28 04:59:04;;;;;;;3.15;1.70;;;17.60;99.90;;;;;;4986657;28;20034;-52
2023/07/28 05:01:30;;;;;;;3.70;2.08;;;17.60;99.90;;;;;;4970537;28;20479;-55
2023/07/28 05:03:55;;;;;;;4.43;1.88;;;17.60;99.90;;;;;;4985435;28;20125;-52
2023/07/28 05:06:25;;;;;;;3.75;2.00;;;17.60;99.90;;;;;;4982417;28;20494;-55
2023/07/28 05:08:51;;;;;;;4.97;2.08;;;17.60;99.90;;;;;;4973028;28;20027;-54
2023/07/28 05:11:24;;;;;;;2.50;1.70;;;17.70;99.90;;;;;;4972945;28;20097;-51
2023/07/28 05:13:51;;;;;;;2.72;1.65;;;17.70;99.90;;;;;;4977601;28;20101;-54
2023/07/28 05:16:16;;;;;;;3.78;2.00;;;17.70;99.90;;;;;;4978970;28;20543;-51
2023/07/28 05:19:08;;;;;;;3.40;1.85;;;17.70;99.90;;;;;;4980433;28;20037;-53
2023/07/28 05:21:43;;;;;;;2.67;1.50;;;17.70;99.90;;;;;;4983848;28;20111;-54
2023/07/28 05:24:12;;;;;;;3.00;2.08;;;17.70;99.90;;;;;;4971437;28;20036;-53
2023/07/28 05:26:37;;;;;;;3.33;2.00;;;17.80;99.90;;;;;;4975581;28;20554;-54
2023/07/28 05:29:03;;;;;;;3.40;1.80;;;17.70;99.90;;;;;;5028967;23;20129;-51
2023/07/28 05:31:29;;;;;;;4.20;1.90;;;17.80;99.90;;;;;;5005662;28;20034;-55
2023/07/28 05:33:54;;;;;;;4.47;2.20;;;17.80;99.90;;;;;;4997935;28;20066;-55
2023/07/28 05:36:21;;;;;;;5.13;2.20;;;17.80;99.90;;;;;;5005583;28;20025;-55
2023/07/28 05:38:49;;;;;;;10.63;5.95;;;17.80;99.90;;;;;;5002808;28;20438;-51
2023/07/28 05:41:15;;;;;;;11.63;6.38;;;17.80;99.90;;;;;;5001554;28;20032;-50
2023/07/28 05:43:43;;;;;;;15.32;10.18;;;17.80;99.90;;;;;;5004490;28;20458;-54
2023/07/28 05:46:09;;;;;;;7.70;4.70;;;17.90;99.90;;;;;;4999869;28;20121;-54
2023/07/28 05:48:36;;;;;;;8.68;3.80;;;17.90;99.90;;;;;;5004891;28;20594;-52
2023/07/28 05:51:02;;;;;;;9.30;5.07;;;18.00;99.90;;;;;;5007877;28;20042;-53
2023/07/28 05:53:27;;;;;;;10.13;5.88;;;18.00;99.90;;;;;;5005307;28;20032;-54
2023/07/28 05:55:58;;;;;;;8.20;3.72;;;17.90;99.90;;;;;;5009481;28;20046;-52
2023/07/28 05:58:27;;;;;;;8.25;4.53;;;18.00;99.90;;;;;;4998881;28;20092;-55
2023/07/28 06:00:53;;;;;;;10.23;4.68;;;18.00;99.90;;;;;;4998901;28;20061;-51
2023/07/28 06:03:38;;;;;;;8.43;4.03;;;17.90;99.90;;;;;;5001993;28;20352;-53
2023/07/28 06:06:13;;;;;;;6.85;3.03;;;17.90;99.90;;;;;;4999919;28;20030;-54
2023/07/28 06:08:38;;;;;;;8.13;3.28;;;18.00;99.90;;;;;;4999155;28;20096;-54
2023/07/28 06:11:05;;;;;;;5.10;2.15;;;18.00;99.90;;;;;;5010307;28;20022;-54
2023/07/28 06:13:31;;;;;;;12.13;6.10;;;18.10;99.90;;;;;;5010334;28;20022;-51
2023/07/28 06:15:58;;;;;;;6.05;3.05;;;18.10;99.90;;;;;;5008475;28;20088;-53
2023/07/28 06:18:24;;;;;;;7.30;3.53;;;18.10;99.90;;;;;;5007473;28;20096;-53
2023/07/28 06:20:59;;;;;;;5.53;2.83;;;18.10;99.90;;;;;;4991373;28;20064;-54
2023/07/28 06:23:24;;;;;;;6.30;2.95;;;18.10;99.90;;;;;;4992427;28;20030;-50
2023/07/28 06:25:51;;;;;;;6.90;2.58;;;18.10;99.90;;;;;;4998935;28;20428;-52
2023/07/28 06:28:17;;;;;;;5.25;2.85;;;18.00;99.90;;;;;;4994262;28;20105;-54
2023/07/28 06:30:43;;;;;;;5.60;2.47;;;18.00;99.90;;;;;;4995921;28;20117;-53
2023/07/28 06:33:09;;;;;;;6.93;3.80;;;18.00;99.90;;;;;;4987452;28;20034;-49
2023/07/28 06:35:34;;;;;;;4.65;2.75;;;18.00;99.90;;;;;;4995523;28;20498;-52
2023/07/28 06:38:02;;;;;;;4.38;2.22;;;18.00;99.90;;;;;;4993210;28;20035;-51
2023/07/28 06:40:28;;;;;;;6.78;4.10;;;18.10;99.90;;;;;;4992301;28;20030;-50
2023/07/28 06:42:53;;;;;;;5.80;3.08;;;18.10;99.90;;;;;;4992920;28;20026;-54
2023/07/28 06:45:20;;;;;;;7.05;3.97;;;18.20;99.90;;;;;;4991906;28;20399;-52
2023/07/28 06:47:45;;;;;;;10.10;5.47;;;18.30;99.90;;;;;;4993777;28;20031;-52
2023/07/28 06:50:11;;;;;;;6.10;3.13;;;18.30;99.90;;;;;;4992576;28;20026;-53
2023/07/28 06:52:38;;;;;;;5.95;3.40;;;18.40;99.90;;;;;;4993610;28;20502;-53
2023/07/28 06:55:04;;;;;;;7.13;3.75;;;18.40;99.90;;;;;;4992089;28;20027;-51
2023/07/28 06:57:34;;;;;;;5.65;3.10;;;18.50;99.90;;;;;;4984329;28;20361;-50
2023/07/28 07:00:01;;;;;;;9.30;4.25;;;18.60;99.90;;;;;;4974701;28;20034;-51
2023/07/28 07:02:26;;;;;;;7.40;3.92;;;18.60;99.90;;;;;;4975445;28;20480;-52
2023/07/28 07:04:52;;;;;;;9.32;4.32;;;18.60;99.90;;;;;;4974143;28;20034;-50
2023/07/28 07:07:18;;;;;;;7.10;3.40;;;18.70;99.90;;;;;;4974944;28;20030;-51
2023/07/28 07:09:43;;;;;;;6.40;2.83;;;18.70;99.90;;;;;;4974798;28;20499;-54
2023/07/28 07:12:09;;;;;;;7.95;3.28;;;18.70;99.90;;;;;;4974536;28;20403;-53
2023/07/28 07:14:35;;;;;;;7.82;4.05;;;18.80;99.90;;;;;;4974364;28;20082;-51
2023/07/28 07:17:01;;;;;;;6.18;3.67;;;18.80;99.90;;;;;;4975947;28;20399;-53
2023/07/28 07:19:29;;;;;;;9.27;4.13;;;18.90;99.90;;;;;;4975768;28;20396;-49
2023/07/28 07:21:55;;;;;;;7.72;3.60;;;18.90;99.90;;;;;;4975624;28;20093;-51
2023/07/28 07:24:22;;;;;;;9.35;4.43;;;19.00;99.90;;;;;;4975699;28;20123;-55
2023/07/28 07:26:47;;;;;;;10.02;5.20;;;19.00;99.90;;;;;;4975832;28;20121;-53
2023/07/28 07:29:13;;;;;;;8.23;4.10;;;19.00;99.90;;;;;;4975809;28;20046;-54
2023/07/28 07:31:39;;;;;;;9.63;4.05;;;19.00;99.90;;;;;;4975549;28;20030;-55
2023/07/28 07:34:05;;;;;;;8.13;4.05;;;19.00;99.90;;;;;;4975280;28;20031;-54
2023/07/28 07:36:31;;;;;;;8.05;3.70;;;19.00;99.90;;;;;;4975675;28;20034;-54
2023/07/28 07:38:57;;;;;;;6.88;3.10;;;19.00;99.90;;;;;;4975804;28;20066;-54
2023/07/28 07:41:23;;;;;;;9.52;4.47;;;19.00;99.90;;;;;;4974244;28;20483;-52
2023/07/28 07:43:50;;;;;;;8.95;4.75;;;19.00;99.90;;;;;;4975279;28;20380;-53
2023/07/28 07:46:16;;;;;;;7.53;3.63;;;19.00;99.90;;;;;;4975408;28;20065;-54
2023/07/28 07:48:42;;;;;;;7.35;3.53;;;18.90;99.90;;;;;;4974012;28;20427;-54
2023/07/28 07:51:08;;;;;;;6.35;3.40;;;18.90;99.90;;;;;;4975472;28;20061;-54
2023/07/28 07:53:36;;;;;;;6.50;3.78;;;18.90;99.90;;;;;;4974938;28;20027;-51
2023/07/28 07:56:06;;;;;;;6.38;3.35;;;18.90;99.90;;;;;;4975365;28;20043;-54
2023/07/28 07:58:32;;;;;;;5.88;3.30;;;18.90;99.90;;;;;;4975177;28;20035;-51
2023/07/28 08:00:58;;;;;;;5.72;3.22;;;19.00;99.90;;;;;;4975450;28;20027;-54
2023/07/28 08:03:24;;;;;;;5.13;2.97;;;19.00;99.90;;;;;;4974483;28;20030;-55
2023/07/28 08:05:53;;;;;;;5.93;3.40;;;19.10;99.90;;;;;;4974762;28;20042;-53
2023/07/28 08:08:19;;;;;;;5.82;3.25;;;19.10;99.90;;;;;;4975112;28;20109;-53
2023/07/28 08:10:48;;;;;;;5.20;3.22;;;19.10;99.90;;;;;;4974945;28;20038;-52
2023/07/28 08:13:14;;;;;;;7.07;3.05;;;19.20;99.90;;;;;;4973981;28;20046;-51
2023/07/28 08:15:40;;;;;;;6.07;2.67;;;19.30;99.90;;;;;;4974876;28;20469;-54
2023/07/28 08:18:05;;;;;;;6.85;3.42;;;19.30;99.90;;;;;;4974793;28;20037;-52
2023/07/28 08:20:31;;;;;;;7.50;3.50;;;19.40;99.90;;;;;;4974586;28;20110;-54
2023/07/28 08:22:57;;;;;;;4.93;3.13;;;19.40;99.90;;;;;;4974451;28;20031;-50
2023/07/28 08:25:23;;;;;;;20.65;11.57;;;19.60;99.90;;;;;;4974410;28;20027;-52
2023/07/28 08:27:49;;;;;;;22.08;12.20;;;19.70;99.90;;;;;;4974641;28;20038;-53
2023/07/28 08:30:15;;;;;;;10.27;6.05;;;19.80;99.90;;;;;;4973187;28;20034;-51
2023/07/28 08:32:42;;;;;;;6.95;4.07;;;19.80;99.90;;;;;;4974552;28;20445;-54
2023/07/28 08:35:09;;;;;;;6.63;3.75;;;19.70;99.90;;;;;;4974194;28;20500;-53
2023/07/28 08:37:35;;;;;;;5.43;2.78;;;19.70;99.90;;;;;;4974298;28;20027;-52
2023/07/28 08:40:01;;;;;;;5.72;3.03;;;19.60;99.90;;;;;;4974564;28;20113;-52
2023/07/28 08:42:30;;;;;;;6.90;2.75;;;19.50;99.90;;;;;;4972956;28;20026;-54
2023/07/28 08:44:55;;;;;;;4.85;3.10;;;19.50;99.90;;;;;;4974069;28;20027;-53
2023/07/28 08:47:21;;;;;;;4.40;2.40;;;19.40;99.90;;;;;;4974144;28;20439;-54
2023/07/28 08:49:47;;;;;;;4.97;2.70;;;19.40;99.90;;;;;;4974571;28;20035;-52
2023/07/28 08:52:16;;;;;;;10.60;5.18;;;19.40;99.90;;;;;;4974037;28;20034;-53
2023/07/28 08:54:42;;;;;;;14.60;7.63;;;19.40;99.90;;;;;;4974128;28;20349;-53
2023/07/28 08:57:09;;;;;;;5.40;2.80;;;19.40;99.90;;;;;;4974133;28;20475;-54
2023/07/28 08:59:36;;;;;;;4.70;2.47;;;19.50;99.90;;;;;;4974177;28;20507;-54
2023/07/28 09:02:01;;;;;;;5.68;1.63;;;19.50;99.90;;;;;;4973966;28;20034;-53
2023/07/28 09:04:28;;;;;;;3.65;1.75;;;19.50;99.90;;;;;;4972500;28;20499;-54
2023/07/28 09:06:53;;;;;;;5.05;1.77;;;19.50;99.90;;;;;;4972388;28;20030;-54
2023/07/28 09:09:22;;;;;;;4.50;2.20;;;19.60;99.90;;;;;;4973952;28;20034;-51
2023/07/28 09:11:53;;;;;;;3.67;2.17;;;19.60;99.90;;;;;;4973817;28;20045;-53
2023/07/28 09:14:20;;;;;;;5.25;2.60;;;19.60;99.90;;;;;;4973377;28;20034;-54
2023/07/28 09:16:47;;;;;;;9.20;4.25;;;19.80;99.90;;;;;;4973767;28;20038;-53
2023/07/28 09:19:13;;;;;;;7.47;3.97;;;19.90;99.90;;;;;;4973966;28;20034;-54
2023/07/28 09:21:43;;;;;;;10.25;5.57;;;20.00;99.90;;;;;;4973562;28;20046;-50
2023/07/28 09:24:10;;;;;;;9.05;4.28;;;20.00;99.90;;;;;;4972703;28;20046;-53
2023/07/28 09:26:47;;;;;;;5.50;2.85;;;20.00;99.90;;;;;;4973754;28;20031;-52
2023/07/28 09:29:17;;;;;;;6.40;3.55;;;20.10;99.90;;;;;;4973192;28;20039;-52
2023/07/28 09:31:48;;;;;;;5.72;2.55;;;20.30;99.90;;;;;;4973317;28;20091;-53
2023/07/28 09:34:25;;;;;;;4.07;2.00;;;20.50;99.90;;;;;;4973535;28;20030;-51
2023/07/28 09:36:53;;;;;;;3.47;2.25;;;20.70;99.90;;;;;;4973494;28;20039;-53
2023/07/28 09:39:20;;;;;;;4.03;1.90;;;20.60;99.90;;;;;;4973378;28;20026;-51
2023/07/28 09:41:47;;;;;;;4.25;2.00;;;20.70;99.90;;;;;;4973119;28;20027;-54
2023/07/28 09:44:13;;;;;;;2.65;1.67;;;20.70;99.90;;;;;;4973028;28;20041;-53
2023/07/28 09:46:52;;;;;;;2.95;1.90;;;20.70;99.90;;;;;;4973321;28;20122;-53
2023/07/28 09:49:28;;;;;;;3.67;2.08;;;20.70;99.90;;;;;;4973207;28;20265;-51
2023/07/28 09:51:57;;;;;;;3.20;1.65;;;20.70;99.90;;;;;;4973240;28;20031;-54
2023/07/28 09:54:29;;;;;;;4.10;2.25;;;20.90;99.90;;;;;;4973102;28;20105;-55
2023/07/28 09:56:59;;;;;;;2.97;1.80;;;20.90;99.90;;;;;;4973273;28;20439;-52
2023/07/28 09:59:31;;;;;;;4.20;2.35;;;20.90;99.90;;;;;;4972969;28;20031;-51
2023/07/28 10:01:58;;;;;;;6.75;2.67;;;20.60;99.90;;;;;;4972893;28;20035;-50
2023/07/28 10:04:24;;;;;;;3.35;1.70;;;20.50;99.90;;;;;;4973090;28;20031;-49
2023/07/28 10:06:56;;;;;;;9.65;2.00;;;20.50;99.90;;;;;;4972856;28;20492;-49
2023/07/28 10:09:25;;;;;;;2.92;1.80;;;20.40;99.90;;;;;;4973034;28;20023;-49
2023/07/28 10:11:52;;;;;;;3.60;1.70;;;20.40;99.90;;;;;;4972921;28;20034;-49
2023/07/28 10:14:40;;;;;;;3.15;1.55;;;20.50;99.90;;;;;;4972745;28;20058;-51
2023/07/28 10:17:06;;;;;;;3.20;1.43;;;20.50;99.90;;;;;;4973217;28;20050;-49
2023/07/28 10:19:35;;;;;;;2.45;1.70;;;20.50;99.90;;;;;;4973025;28;20041;-49
2023/07/28 10:22:05;;;;;;;5.05;2.47;;;20.60;99.90;;;;;;4972977;28;20086;-50
2023/07/28 10:24:55;;;;;;;4.35;1.70;;;20.60;99.90;;;;;;4972842;28;20057;-50
2023/07/28 10:27:45;;;;;;;2.58;1.50;;;20.60;99.90;;;;;;4972416;28;20488;-49
2023/07/28 10:30:13;;;;;;;3.33;1.63;;;20.60;99.90;;;;;;4972506;28;20514;-50
2023/07/28 10:32:44;;;;;;;2.83;1.55;;;20.60;99.90;;;;;;4972491;28;20373;-50
2023/07/28 10:35:12;;;;;;;3.03;1.63;;;20.70;99.90;;;;;;4972336;28;20026;-49
2023/07/28 10:37:38;;;;;;;;;;;20.80;99.90;;;;;;4973280;28;20110;-50
2023/07/28 10:40:34;;;;;;;2.10;1.48;;;20.80;99.90;;;;;;4972352;28;19957;-49
2023/07/28 10:43:01;;;;;;;2.53;1.80;;;20.90;99.90;;;;;;4972501;28;20042;-48
2023/07/28 10:45:29;;;;;;;4.00;1.80;;;21.10;99.90;;;;;;4972060;28;20035;-51
2023/07/28 10:47:56;;;;;;;4.78;1.85;;;21.20;99.90;;;;;;4972587;28;20027;-49
2023/07/28 10:50:23;;;;;;;3.30;1.80;;;21.30;99.90;;;;;;4972360;28;20029;-50
2023/07/28 10:52:49;;;;;;;3.15;2.22;;;21.40;99.90;;;;;;4972187;28;20480;-51
2023/07/28 10:55:27;;;;;;;2.85;1.88;;;21.50;99.90;;;;;;4972273;28;20046;-52
2023/07/28 10:57:54;;;;;;;;;;;21.60;99.90;;;;;;4973008;28;20050;-51
2023/07/28 11:00:21;;;;;;;2.40;1.30;;;21.70;99.90;;;;;;4972663;28;19917;-50
2023/07/28 11:02:50;;;;;;;2.10;1.50;;;21.70;99.90;;;;;;4972319;28;20037;-54
2023/07/28 11:05:29;;;;;;;3.50;1.70;;;21.80;99.90;;;;;;4970817;28;20503;-53
2023/07/28 11:08:00;;;;;;;2.90;1.40;;;21.90;99.90;;;;;;4972602;28;20034;-53
2023/07/28 11:10:30;;;;;;;2.30;1.50;;;22.00;99.90;;;;;;4972252;28;20027;-53
2023/07/28 11:12:58;;;;;;;2.55;1.73;;;21.90;99.90;;;;;;4972023;28;20046;-52
2023/07/28 11:15:25;;;;;;;1.85;1.27;;;21.90;99.90;;;;;;4971841;28;20042;-51
2023/07/28 11:17:51;;;;;;;2.30;1.45;;;21.80;99.90;;;;;;4972396;28;20034;-54
2023/07/28 11:20:19;;;;;;;1.65;1.25;;;21.80;99.90;;;;;;4972305;28;20027;-53
2023/07/28 11:22:46;;;;;;;4.47;2.28;;;21.70;99.90;;;;;;4972284;28;20059;-51
2023/07/28 11:25:12;;;;;;;2.75;1.77;;;21.70;99.90;;;;;;4972120;28;20102;-53
2023/07/28 11:27:39;;;;;;;4.68;2.55;;;21.70;99.90;;;;;;4972377;28;20065;-53
2023/07/28 11:30:07;;;;;;;10.82;4.53;;;21.60;99.90;;;;;;4971895;28;20034;-54
2023/07/28 11:32:37;;;;;;;13.85;1.83;;;21.60;99.90;;;;;;4971572;28;20074;-53
2023/07/28 11:35:10;;;;;;;2.38;1.35;;;21.50;99.90;;;;;;4971602;28;20490;-52
2023/07/28 11:37:37;;;;;;;3.05;1.70;;;21.20;99.90;;;;;;4971906;28;20019;-54
2023/07/28 11:40:06;;;;;;;5.50;1.92;;;21.10;99.90;;;;;;4971684;28;20074;-54
2023/07/28 11:42:40;;;;;;;2.58;1.50;;;21.00;99.90;;;;;;4971439;28;20066;-54
2023/07/28 11:45:07;;;;;;;2.30;1.55;;;21.10;99.90;;;;;;4971457;28;20031;-53
2023/07/28 11:47:33;;;;;;;2.70;1.50;;;21.20;99.90;;;;;;4972336;28;20037;-53
2023/07/28 11:50:00;;;;;;;2.47;1.30;;;21.30;99.90;;;;;;4975186;28;20121;-52
2023/07/28 11:52:36;;;;;;;2.03;1.17;;;21.40;99.90;;;;;;4974944;28;20031;-54
2023/07/28 11:55:04;;;;;;;3.55;1.90;;;21.60;99.90;;;;;;4974956;28;20030;-53
2023/07/28 11:57:31;;;;;;;4.82;1.27;;;21.80;99.90;;;;;;4975222;28;20041;-51
2023/07/28 11:59:57;;;;;;;1.60;1.00;;;21.80;99.90;;;;;;4989974;28;20450;-53
2023/07/28 12:02:33;;;;;;;1.73;1.10;;;22.10;99.90;;;;;;4974808;28;20034;-54
2023/07/28 12:04:59;;;;;;;1.70;0.80;;;22.50;99.90;;;;;;4974954;28;20479;-54
2023/07/28 12:07:32;;;;;;;1.20;0.80;;;22.60;99.90;;;;;;4974823;28;20061;-53
2023/07/28 12:10:06;;;;;;;0.80;0.80;;;22.70;99.90;;;;;;4974954;28;20034;-53
2023/07/28 12:12:40;;;;;;;1.33;0.98;;;22.70;99.90;;;;;;4974707;28;20484;-52
2023/07/28 12:15:30;;;;;;;1.98;0.73;;;22.60;99.90;;;;;;4973551;28;20096;-54
2023/07/28 12:18:12;;;;;;;2.15;1.10;;;22.60;99.90;;;;;;4974614;28;20031;-51
2023/07/28 12:20:38;;;;;;;1.63;0.60;;;22.80;99.90;;;;;;4974756;28;20035;-50
2023/07/28 12:23:05;;;;;;;1.02;0.70;;;23.00;99.90;;;;;;4974347;28;20054;-52
2023/07/28 12:25:31;;;;;;;1.48;0.70;;;23.20;99.90;;;;;;4974629;28;20126;-49
2023/07/28 12:27:57;;;;;;;1.40;0.75;;;23.20;99.90;;;;;;4974466;28;20027;-48
2023/07/28 12:30:23;;;;;;;0.60;0.55;;;23.30;99.90;;;;;;4974404;28;20057;-49
2023/07/28 12:32:48;;;;;;;0.82;0.60;;;23.40;99.90;;;;;;4974478;28;20102;-51
2023/07/28 12:35:14;;;;;;;1.40;0.77;;;23.50;99.90;;;;;;4974263;28;20041;-51
2023/07/28 12:37:41;;;;;;;1.25;0.77;;;23.50;99.90;;;;;;4974476;28;20483;-50
2023/07/28 12:40:08;;;;;;;0.63;0.50;;;23.60;99.90;;;;;;4974088;28;20069;-50
2023/07/28 12:42:34;;;;;;;1.13;0.60;;;23.70;99.90;;;;;;4974062;28;20072;-53
2023/07/28 12:44:59;;;;;;;0.57;0.52;;;23.70;99.90;;;;;;4973953;28;20073;-50
2023/07/28 12:47:25;;;;;;;1.88;0.60;;;23.60;99.90;;;;;;4972847;28;20035;-49
2023/07/28 12:49:51;;;;;;;1.90;1.05;;;23.50;99.90;;;;;;4974223;28;20122;-53
2023/07/28 12:52:16;;;;;;;0.60;0.60;;;23.60;99.90;;;;;;4973969;28;20072;-54